Time;durP1;ratioP1;P1;durP2;ratioP2;P2;SDS_P1;SDS_P2;PMS_P1;PMS_P2;Temp;Humidity;BMP_temperature;BMP_pressure;BME280_temperature;BME280_humidity;BME280_pressure;Samples;Min_cycle;Max_cycle;Signal;HPM_P1;HPM_P2
2023/03/19 00:00:21;;;;;;;;;;;;;;;4.03;100.00;100801.31;5588618;31;34810;-68
2023/03/19 00:03:31;;;;;;;;;;;;;;;4.00;100.00;100796.31;5588568;31;34484;-69
2023/03/19 00:06:38;;;;;;;;;;;;;;;3.92;100.00;100796.87;5576032;31;35327;-69
2023/03/19 00:09:47;;;;;;;;;;;;;;;3.87;100.00;100785.06;5589277;31;34589;-68
2023/03/19 00:12:54;;;;;;;;;;;;;;;3.94;100.00;100791.50;5575324;31;35497;-69
2023/03/19 00:16:05;;;;;;;;;;;;;;;3.82;100.00;100793.28;5589065;31;34377;-68
2023/03/19 00:19:13;;;;;;;;;;;;;;;3.75;100.00;100786.81;5589044;31;35101;-68
2023/03/19 00:22:20;;;;;;;;;;;;;;;3.70;100.00;100786.31;5588939;31;34421;-69
2023/03/19 00:25:31;;;;;;;;;;;;;;;3.68;100.00;100782.16;5588940;31;34640;-68
2023/03/19 00:28:41;;;;;;;;;;;;;;;3.63;100.00;100777.22;5588210;31;34682;-68
2023/03/19 00:31:50;;;;;;;;;;;;;;;3.59;100.00;100777.56;5588124;31;34593;-67
2023/03/19 00:34:58;;;;;;;;;;;;;;;3.53;100.00;100778.88;5588087;31;35177;-67
2023/03/19 00:38:06;;;;;;;;;;;;;;;3.47;100.00;100781.94;5588270;31;34670;-68
2023/03/19 00:41:17;;;;;;;;;;;;;;;3.41;100.00;100772.72;5595297;31;35108;-68
2023/03/19 00:44:24;;;;;;;;;;;;;;;3.35;100.00;100770.53;5595170;31;35027;-68
2023/03/19 00:47:34;;;;;;;;;;;;;;;3.31;100.00;100771.72;5594385;31;34419;-67
2023/03/19 00:50:44;;;;;;;;;;;;;;;3.29;100.00;100773.59;5594926;31;34181;-69
2023/03/19 00:53:51;;;;;;;;;;;;;;;3.25;100.00;100772.16;5595171;31;35066;-67
2023/03/19 00:57:01;;;;;;;;;;;;;;;3.21;100.00;100762.00;5594166;31;34422;-67
2023/03/19 01:00:11;;;;;;;;;;;;;;;3.13;100.00;100753.88;5594261;31;35393;-67
2023/03/19 01:03:17;;;;;;;;;;;;;;;3.06;100.00;100751.69;5594165;31;35804;-66
2023/03/19 01:06:24;;;;;;;;;;;;;;;3.02;100.00;100749.41;5594758;31;34463;-68
2023/03/19 01:09:32;;;;;;;;;;;;;;;2.97;100.00;100767.25;5594703;31;34540;-67
2023/03/19 01:12:43;;;;;;;;;;;;;;;2.93;100.00;100766.63;5594048;31;34108;-67
2023/03/19 01:15:52;;;;;;;;;;;;;;;2.84;100.00;100762.06;5593658;31;34580;-67
2023/03/19 01:18:59;;;;;;;;;;;;;;;2.79;100.00;100766.78;5594663;31;35244;-67
2023/03/19 01:22:07;;;;;;;;;;;;;;;2.78;100.00;100769.50;5594485;31;34829;-67
2023/03/19 01:25:17;;;;;;;;;;;;;;;2.74;100.00;100773.28;5593835;31;33802;-67
2023/03/19 01:28:24;;;;;;;;;;;;;;;2.72;100.00;100772.53;5580678;31;35227;-67
2023/03/19 01:31:34;;;;;;;;;;;;;;;2.70;100.00;100762.19;5594429;31;34499;-68
2023/03/19 01:34:46;;;;;;;;;;;;;;;2.65;100.00;100768.69;5593706;31;35185;-67
2023/03/19 01:37:59;;;;;;;;;;;;;;;2.61;100.00;100768.09;5594265;31;35131;-67
2023/03/19 01:41:06;;;;;;;;;;;;;;;2.56;100.00;100760.56;5594248;31;34334;-67
2023/03/19 01:44:24;;;;;;;;;;;;;;;2.51;100.00;100762.66;5568552;31;33124;-68
2023/03/19 01:47:32;;;;;;;;;;;;;;;2.48;100.00;100759.37;5593089;31;34926;-67
2023/03/19 01:50:42;;;;;;;;;;;;;;;2.49;100.00;100763.69;5591391;31;34104;-67
2023/03/19 01:53:52;;;;;;;;;;;;;;;2.45;100.00;100763.06;5589652;31;35266;-67
2023/03/19 01:57:07;;;;;;;;;;;;;;;2.40;100.00;100757.31;5589654;31;35096;-67
2023/03/19 02:00:19;;;;;;;;;;;;;;;2.37;100.00;100767.97;5589675;31;34653;-67
2023/03/19 02:03:25;;;;;;;;;;;;;;;2.32;100.00;100761.41;5576474;31;34223;-68
2023/03/19 02:06:34;;;;;;;;;;;;;;;2.30;100.00;100763.28;5577131;31;34550;-67
2023/03/19 02:09:46;;;;;;;;;;;;;;;2.31;100.00;100763.19;5577287;31;34580;-67
2023/03/19 02:12:57;;;;;;;;;;;;;;;2.23;100.00;100762.87;5577027;31;34926;-68
2023/03/19 02:16:06;;;;;;;;;;;;;;;2.20;100.00;100765.69;5590227;31;34155;-67
2023/03/19 02:19:38;;;;;;;;;;;;;;;2.18;100.00;100763.19;5577145;31;35177;-67
2023/03/19 02:23:06;;;;;;;;;;;;;;;2.14;100.00;100763.50;5576088;31;33764;-68
2023/03/19 02:26:18;;;;;;;;;;;;;;;2.14;100.00;100766.13;5590083;31;35078;-67
2023/03/19 02:29:25;;;;;;;;;;;;;;;2.08;100.00;100758.69;5576819;31;34555;-68
2023/03/19 02:32:34;;;;;;;;;;;;;;;2.08;100.00;100761.31;5576943;31;35140;-68
2023/03/19 02:35:41;;;;;;;;;;;;;;;2.05;100.00;100756.28;5590179;31;34536;-67
2023/03/19 02:38:51;;;;;;;;;;;;;;;2.01;100.00;100763.50;5576676;31;35186;-68
2023/03/19 02:41:59;;;;;;;;;;;;;;;1.96;100.00;100754.28;5590031;31;34453;-68
2023/03/19 02:45:08;;;;;;;;;;;;;;;1.96;100.00;100755.13;5589935;31;34543;-67
2023/03/19 02:48:15;;;;;;;;;;;;;;;1.95;100.00;100750.81;5575875;31;33785;-67
2023/03/19 02:51:24;;;;;;;;;;;;;;;1.94;100.00;100750.91;5589828;31;34434;-67
2023/03/19 02:54:32;;;;;;;;;;;;;;;1.92;100.00;100743.19;5589902;31;34510;-67
2023/03/19 02:57:39;;;;;;;;;;;;;;;1.97;100.00;100750.75;5589909;31;34337;-67
2023/03/19 03:00:53;;;;;;;;;;;;;;;1.93;100.00;100744.88;5589563;31;34654;-68
2023/03/19 03:04:03;;;;;;;;;;;;;;;1.89;100.00;100745.19;5576598;31;34164;-67
2023/03/19 03:07:12;;;;;;;;;;;;;;;1.85;100.00;100751.53;5576631;31;35210;-69
2023/03/19 03:10:25;;;;;;;;;;;;;;;1.86;100.00;100753.22;5563357;31;34817;-68
2023/03/19 03:13:32;;;;;;;;;;;;;;;1.86;100.00;100755.84;5574990;31;34655;-68
2023/03/19 03:16:43;;;;;;;;;;;;;;;1.80;100.00;100762.31;5562798;31;34525;-68
2023/03/19 03:19:52;;;;;;;;;;;;;;;1.75;100.00;100767.03;5563063;31;34645;-68
2023/03/19 03:23:01;;;;;;;;;;;;;;;1.74;100.00;100757.53;5576828;31;35127;-68
2023/03/19 03:26:09;;;;;;;;;;;;;;;1.74;100.00;100754.91;5589698;31;35222;-68
2023/03/19 03:29:21;;;;;;;;;;;;;;;1.73;100.00;100758.47;5576745;31;34631;-68
2023/03/19 03:32:30;;;;;;;;;;;;;;;1.72;100.00;100755.00;5576520;31;34374;-68
2023/03/19 03:35:42;;;;;;;;;;;;;;;1.66;100.00;100763.25;5589983;31;35031;-68
2023/03/19 03:38:53;;;;;;;;;;;;;;;1.65;100.00;100758.09;5589542;31;34178;-68
2023/03/19 03:42:03;;;;;;;;;;;;;;;1.63;100.00;100752.16;5589503;31;34523;-68
2023/03/19 03:45:11;;;;;;;;;;;;;;;1.62;100.00;100755.72;5576228;31;34763;-68
2023/03/19 03:48:20;;;;;;;;;;;;;;;1.60;100.00;100757.56;5563989;31;34495;-68
2023/03/19 03:51:32;;;;;;;;;;;;;;;1.60;100.00;100757.56;5576248;31;35133;-68
2023/03/19 03:54:47;;;;;;;;;;;;;;;1.55;100.00;100754.44;5589333;31;34999;-68
2023/03/19 03:57:54;;;;;;;;;;;;;;;1.54;100.00;100753.62;5589244;31;34088;-67
2023/03/19 04:01:06;;;;;;;;;;;;;;;1.57;100.00;100757.78;5575451;31;33680;-67
2023/03/19 04:04:14;;;;;;;;;;;;;;;1.50;100.00;100764.38;5589421;31;35175;-67
2023/03/19 04:07:21;;;;;;;;;;;;;;;1.47;100.00;100761.94;5575970;31;34108;-67
2023/03/19 04:10:29;;;;;;;;;;;;;;;1.49;100.00;100757.47;5575160;31;34643;-67
2023/03/19 04:13:37;;;;;;;;;;;;;;;1.50;100.00;100759.97;5587686;31;34467;-67
2023/03/19 04:16:46;;;;;;;;;;;;;;;1.47;100.00;100760.16;5588982;31;35247;-68
2023/03/19 04:19:59;;;;;;;;;;;;;;;1.43;100.00;100768.31;5588781;31;34679;-68
2023/03/19 04:23:06;;;;;;;;;;;;;;;1.38;100.00;100760.78;5575727;31;35022;-67
2023/03/19 04:26:13;;;;;;;;;;;;;;;1.37;100.00;100756.47;5589093;31;35014;-68
2023/03/19 04:29:22;;;;;;;;;;;;;;;1.30;100.00;100757.84;5588865;31;35226;-68
2023/03/19 04:32:29;;;;;;;;;;;;;;;1.35;100.00;100758.38;5575276;31;34636;-67
2023/03/19 04:35:37;;;;;;;;;;;;;;;1.45;100.00;100750.75;5575266;31;34582;-67
2023/03/19 04:38:43;;;;;;;;;;;;;;;1.37;100.00;100746.03;5562528;31;34773;-67
2023/03/19 04:41:52;;;;;;;;;;;;;;;1.37;100.00;100746.03;5588606;31;35073;-67
2023/03/19 04:45:03;;;;;;;;;;;;;;;1.30;100.00;100739.53;5563506;31;35250;-67
2023/03/19 04:48:19;;;;;;;;;;;;;;;1.25;100.00;100741.59;5588463;31;34145;-67
2023/03/19 04:51:28;;;;;;;;;;;;;;;1.28;100.00;100741.41;5588385;31;34890;-68
2023/03/19 04:54:37;;;;;;;;;;;;;;;1.21;100.00;100754.00;5574347;31;34602;-67
2023/03/19 04:57:44;;;;;;;;;;;;;;;1.16;100.00;100745.63;5549659;31;34086;-67
2023/03/19 05:00:56;;;;;;;;;;;;;;;1.21;100.00;100753.19;5588289;31;34368;-67
2023/03/19 05:04:06;;;;;;;;;;;;;;;1.21;100.00;100761.84;5575105;31;34646;-67
2023/03/19 05:07:14;;;;;;;;;;;;;;;1.19;100.00;100768.97;5562687;31;34156;-68
2023/03/19 05:10:22;;;;;;;;;;;;;;;1.14;100.00;100765.81;5575213;31;34505;-68
2023/03/19 05:13:30;;;;;;;;;;;;;;;1.13;100.00;100764.12;5588117;31;33201;-69
2023/03/19 05:16:40;;;;;;;;;;;;;;;1.18;100.00;100767.28;5561876;31;33262;-68
2023/03/19 05:19:48;;;;;;;;;;;;;;;1.21;100.00;100769.69;5587943;31;33964;-68
2023/03/19 05:22:55;;;;;;;;;;;;;;;1.30;100.00;100773.50;5561419;31;33109;-68
2023/03/19 05:26:05;;;;;;;;;;;;;;;1.52;100.00;100765.09;5589710;31;34527;-68
2023/03/19 05:29:15;;;;;;;;;;;;;;;1.70;100.00;100772.56;5590619;31;35118;-69
2023/03/19 05:32:24;;;;;;;;;;;;;;;1.78;100.00;100779.06;5590627;31;34548;-68
2023/03/19 05:35:32;;;;;;;;;;;;;;;1.73;100.00;100771.53;5564206;31;32945;-67
2023/03/19 05:38:40;;;;;;;;;;;;;;;1.74;100.00;100770.59;5590520;31;35786;-68
2023/03/19 05:41:47;;;;;;;;;;;;;;;1.81;100.00;100781.47;5577038;31;35227;-70
2023/03/19 05:44:58;;;;;;;;;;;;;;;1.91;100.00;100770.28;5564089;31;33357;-68
2023/03/19 05:48:07;;;;;;;;;;;;;;;2.07;100.00;100780.56;5590440;31;34466;-67
2023/03/19 05:51:18;;;;;;;;;;;;;;;2.28;100.00;100791.34;5577058;31;34828;-68
2023/03/19 05:54:27;;;;;;;;;;;;;;;2.44;100.00;100794.59;5576987;31;34579;-68
2023/03/19 05:57:34;;;;;;;;;;;;;;;2.54;100.00;100788.63;5590670;31;34333;-69
2023/03/19 06:00:43;;;;;;;;;;;;;;;2.75;100.00;100791.53;5590228;31;35065;-68
2023/03/19 06:03:50;;;;;;;;;;;;;;;2.94;100.00;100789.28;5576817;31;34877;-67
2023/03/19 06:07:04;;;;;;;;;;;;;;;3.07;100.00;100786.59;5577543;31;34458;-68
2023/03/19 06:10:17;;;;;;;;;;;;;;;3.14;100.00;100792.25;5577405;31;34149;-68
2023/03/19 06:13:25;;;;;;;;;;;;;;;3.45;100.00;100802.19;5576898;31;34533;-67
2023/03/19 06:16:38;;;;;;;;;;;;;;;3.60;100.00;100795.81;5577025;31;35158;-68
2023/03/19 06:19:49;;;;;;;;;;;;;;;3.67;100.00;100802.31;5576861;31;35105;-68
2023/03/19 06:23:00;;;;;;;;;;;;;;;3.79;100.00;100806.63;5590002;31;35245;-68
2023/03/19 06:26:06;;;;;;;;;;;;;;;4.06;100.00;100800.28;5589993;31;34585;-69
2023/03/19 06:29:20;;;;;;;;;;;;;;;4.49;100.00;100811.78;5565259;31;34561;-68
2023/03/19 06:32:28;;;;;;;;;;;;;;;5.01;100.00;100805.91;5576170;31;34721;-68
2023/03/19 06:35:40;;;;;;;;;;;;;;;4.99;100.00;100799.09;5575786;31;35707;-69
2023/03/19 06:38:47;;;;;;;;;;;;;;;5.09;98.46;100813.19;5576072;31;34827;-69
2023/03/19 06:41:59;;;;;;;;;;;;;;;5.57;95.13;100818.91;5575811;31;33647;-68
2023/03/19 06:45:08;;;;;;;;;;;;;;;6.04;90.61;100813.25;5589873;31;35116;-68
2023/03/19 06:48:17;;;;;;;;;;;;;;;6.69;81.47;100820.00;5576563;31;34570;-68
2023/03/19 06:51:26;;;;;;;;;;;;;;;7.52;73.86;100822.31;5563535;31;35998;-69
2023/03/19 06:54:34;;;;;;;;;;;;;;;7.81;70.62;100833.72;5576443;31;34889;-69
2023/03/19 06:57:42;;;;;;;;;;;;;;;8.42;68.63;100829.94;5589686;31;35223;-69
2023/03/19 07:00:52;;;;;;;;;;;;;;;8.50;67.36;100828.25;5576554;31;34497;-69
2023/03/19 07:04:04;;;;;;;;;;;;;;;9.44;62.15;100828.94;5576684;31;34600;-68
2023/03/19 07:07:16;;;;;;;;;;;;;;;10.20;56.47;100824.00;5575990;31;33306;-69
2023/03/19 07:10:23;;;;;;;;;;;;;;;10.28;56.58;100821.41;5576207;31;35026;-68
2023/03/19 07:13:30;;;;;;;;;;;;;;;10.27;55.32;100811.78;5589450;31;34789;-69
2023/03/19 07:16:37;;;;;;;;;;;;;;;10.16;53.87;100815.53;5589557;31;34552;-69
2023/03/19 07:19:45;;;;;;;;;;;;;;;10.23;52.29;100815.72;5575464;31;33660;-69
2023/03/19 07:22:56;;;;;;;;;;;;;;;9.29;54.38;100811.88;5589570;31;35315;-68
2023/03/19 07:26:04;;;;;;;;;;;;;;;10.13;52.86;100812.31;5564162;31;34119;-69
2023/03/19 07:29:14;;;;;;;;;;;;;;;9.91;52.12;100808.34;5576336;31;35834;-68
2023/03/19 07:32:25;;;;;;;;;;;;;;;10.10;51.83;100802.87;5576550;31;34456;-67
2023/03/19 07:35:36;;;;;;;;;;;;;;;11.04;48.41;100798.44;5576255;31;35164;-67
2023/03/19 07:38:45;;;;;;;;;;;;;;;10.74;47.61;100802.47;5575996;31;34476;-68
2023/03/19 07:41:54;;;;;;;;;;;;;;;10.20;48.76;100808.09;5576250;31;35249;-68
2023/03/19 07:45:02;;;;;;;;;;;;;;;11.85;45.81;100809.28;5589223;31;35092;-69
2023/03/19 07:48:10;;;;;;;;;;;;;;;12.11;44.97;100815.25;5589280;31;34386;-68
2023/03/19 07:51:18;;;;;;;;;;;;;;;11.12;45.75;100809.09;5589038;31;34556;-69
2023/03/19 07:54:27;;;;;;;;;;;;;;;11.72;44.92;100815.06;5562435;31;35366;-68
2023/03/19 07:57:35;;;;;;;;;;;;;;;12.15;43.95;100797.94;5575963;31;34428;-69
2023/03/19 08:00:44;;;;;;;;;;;;;;;14.12;39.94;100801.19;5588808;31;35010;-69
2023/03/19 08:03:52;;;;;;;;;;;;;;;13.35;40.45;100803.09;5589090;31;34452;-70
2023/03/19 08:07:02;;;;;;;;;;;;;;;13.88;40.11;100796.91;5562676;31;33620;-70
2023/03/19 08:10:11;;;;;;;;;;;;;;;12.70;41.50;100804.34;5562696;31;34307;-69
2023/03/19 08:13:18;;;;;;;;;;;;;;;13.39;39.64;100804.41;5574927;31;34459;-70
2023/03/19 08:16:28;;;;;;;;;;;;;;;15.25;37.24;100790.28;5575902;31;35091;-68
2023/03/19 08:19:36;;;;;;;;;;;;;;;15.75;36.13;100784.84;5562467;31;33290;-68
2023/03/19 08:22:48;;;;;;;;;;;;;;;15.39;35.88;100787.56;5575841;31;35155;-69
2023/03/19 08:25:57;;;;;;;;;;;;;;;14.19;37.62;100782.59;5575600;31;35220;-70
2023/03/19 08:29:08;;;;;;;;;;;;;;;12.79;39.70;100784.66;5588420;31;34519;-69
2023/03/19 08:32:14;;;;;;;;;;;;;;;13.79;38.25;100787.31;5562885;31;34820;-71
2023/03/19 08:35:28;;;;;;;;;;;;;;;15.52;35.11;100795.75;5574483;31;34150;-70
2023/03/19 08:38:38;;;;;;;;;;;;;;;15.03;36.32;100789.37;5575504;31;35170;-69
2023/03/19 08:41:47;;;;;;;;;;;;;;;16.13;34.62;100796.09;5574585;31;33506;-69
2023/03/19 08:44:55;;;;;;;;;;;;;;;17.51;32.08;100802.25;5575483;31;34604;-70
2023/03/19 08:48:06;;;;;;;;;;;;;;;16.46;33.09;100793.66;5574361;31;34711;-70
2023/03/19 08:51:13;;;;;;;;;;;;;;;18.49;31.27;100796.09;5574384;31;32786;-70
2023/03/19 08:54:28;;;;;;;;;;;;;;;17.19;32.88;100794.91;5574727;31;35938;-71
2023/03/19 08:57:36;;;;;;;;;;;;;;;15.45;34.63;100793.97;5575151;31;35126;-69
2023/03/19 09:00:44;;;;;;;;;;;;;;;15.13;35.66;100788.09;5575213;31;33321;-70
2023/03/19 09:03:54;;;;;;;;;;;;;;;13.43;38.55;100780.88;5590945;31;34641;-69
2023/03/19 09:07:02;;;;;;;;;;;;;;;12.89;39.40;100778.12;5590694;31;34972;-70
2023/03/19 09:10:10;;;;;;;;;;;;;;;11.76;41.82;100773.06;5564623;31;34569;-70
2023/03/19 09:13:19;;;;;;;;;;;;;;;11.92;41.86;100778.34;5577083;31;34696;-69
2023/03/19 09:16:27;;;;;;;;;;;;;;;11.38;43.20;100773.63;5590446;31;35002;-69
2023/03/19 09:19:34;;;;;;;;;;;;;;;11.24;43.46;100769.78;5564600;31;34958;-70
2023/03/19 09:22:41;;;;;;;;;;;;;;;10.90;44.25;100767.19;5590527;31;34726;-68
2023/03/19 09:25:50;;;;;;;;;;;;;;;10.83;44.45;100774.97;5590510;31;34614;-69
2023/03/19 09:28:57;;;;;;;;;;;;;;;10.60;45.14;100771.19;5590729;31;34014;-69
2023/03/19 09:32:05;;;;;;;;;;;;;;;10.71;44.80;100772.75;5564850;31;34454;-69
2023/03/19 09:35:12;;;;;;;;;;;;;;;10.83;44.74;100776.78;5590336;31;34456;-68
2023/03/19 09:38:22;;;;;;;;;;;;;;;10.90;44.13;100772.50;5590370;31;34589;-68
2023/03/19 09:41:49;;;;;;;;;;;;;;;10.63;44.72;100759.44;5563370;31;34776;-68
2023/03/19 09:44:58;;;;;;;;;;;;;;;10.83;44.55;100753.75;5590298;31;34169;-69
2023/03/19 09:48:07;;;;;;;;;;;;;;;10.81;44.94;100755.72;5576542;31;33880;-69
2023/03/19 09:51:19;;;;;;;;;;;;;;;10.90;45.41;100760.06;5576901;31;35116;-69
2023/03/19 09:54:45;;;;;;;;;;;;;;;11.01;45.17;100748.31;5590010;31;34692;-69
2023/03/19 09:57:57;;;;;;;;;;;;;;;11.09;44.24;100743.03;5577279;31;34349;-69
2023/03/19 10:01:03;;;;;;;;;;;;;;;11.08;44.14;100743.19;5576703;31;34479;-69
2023/03/19 10:04:34;;;;;;;;;;;;;;;11.28;44.63;100748.03;5589972;31;34899;-69
2023/03/19 10:07:43;;;;;;;;;;;;;;;11.45;44.90;100748.06;5570246;31;34431;-69
2023/03/19 10:11:02;;;;;;;;;;;;;;;11.36;43.90;100739.28;5576080;31;34173;-69
2023/03/19 10:14:10;;;;;;;;;;;;;;;11.55;42.98;100743.44;5576853;31;34584;-69
2023/03/19 10:17:29;;;;;;;;;;;;;;;11.72;42.90;100740.62;5590213;31;34774;-69
2023/03/19 10:20:39;;;;;;;;;;;;;;;11.94;42.95;100739.16;5576832;31;34445;-69
2023/03/19 10:24:05;;;;;;;;;;;;;;;12.22;42.67;100731.63;5576737;31;34512;-69
2023/03/19 10:27:19;;;;;;;;;;;;;;;12.15;42.89;100731.44;5589810;31;35675;-68
2023/03/19 10:30:30;;;;;;;;;;;;;;;12.05;42.82;100737.97;5590082;31;34575;-68
2023/03/19 10:33:42;;;;;;;;;;;;;;;12.52;41.24;100720.22;5590090;31;35676;-68
2023/03/19 10:37:13;;;;;;;;;;;;;;;12.57;42.06;100725.88;5589710;31;34666;-69
2023/03/19 10:40:25;;;;;;;;;;;;;;;12.38;42.06;100712.13;5589699;31;35088;-69
2023/03/19 10:43:33;;;;;;;;;;;;;;;12.80;41.15;100715.28;5576281;31;34616;-69
2023/03/19 10:46:40;;;;;;;;;;;;;;;12.00;42.50;100711.06;5575993;31;35323;-69
2023/03/19 10:49:45;;;;;;;;;;;;;;;12.28;41.91;100708.84;5589669;31;34530;-69
2023/03/19 10:52:50;;;;;;;;;;;;;;;12.38;42.68;100702.31;5589681;31;35212;-70
2023/03/19 10:56:23;;;;;;;;;;;;;;;12.61;42.11;100689.91;5576379;31;34281;-69
2023/03/19 10:59:38;;;;;;;;;;;;;;;12.67;42.13;100676.91;5575024;31;34371;-70
2023/03/19 11:02:47;;;;;;;;;;;;;;;12.68;41.04;100687.41;5575914;31;33698;-68
2023/03/19 11:06:03;;;;;;;;;;;;;;;13.56;40.58;100671.81;5576425;31;34409;-68
2023/03/19 11:09:19;;;;;;;;;;;;;;;16.87;35.51;100673.16;5563407;31;35912;-70
2023/03/19 11:12:33;;;;;;;;;;;;;;;20.68;29.27;100686.81;5589744;31;35214;-70
2023/03/19 11:15:41;;;;;;;;;;;;;;;23.20;25.94;100675.78;5589425;31;32928;-70
2023/03/19 11:18:49;;;;;;;;;;;;;;;20.80;26.70;100666.12;5576227;31;35116;-70
2023/03/19 11:22:00;;;;;;;;;;;;;;;21.77;26.17;100661.38;5576348;31;34580;-71
2023/03/19 11:25:18;;;;;;;;;;;;;;;23.17;24.12;100656.50;5575826;31;35116;-71
2023/03/19 11:28:28;;;;;;;;;;;;;;;22.27;25.50;100648.22;5589682;31;34481;-71
2023/03/19 11:31:48;;;;;;;;;;;;;;;25.77;22.42;100636.78;5589540;31;35094;-71
2023/03/19 11:35:16;;;;;;;;;;;;;;;22.64;24.04;100627.91;5576236;31;34449;-71
2023/03/19 11:38:38;;;;;;;;;;;;;;;22.20;24.44;100626.72;5576046;31;34705;-72
2023/03/19 11:42:03;;;;;;;;;;;;;;;24.07;22.84;100623.81;5589554;31;34244;-71
2023/03/19 11:45:18;;;;;;;;;;;;;;;23.48;23.33;100622.69;5589309;31;34648;-71
2023/03/19 11:48:37;;;;;;;;;;;;;;;24.65;22.28;100626.75;5576111;31;34538;-70
2023/03/19 11:51:46;;;;;;;;;;;;;;;26.15;20.44;100616.63;5576011;31;35313;-72
2023/03/19 11:55:08;;;;;;;;;;;;;;;27.18;19.61;100612.06;5575143;31;33549;-71
2023/03/19 11:58:33;;;;;;;;;;;;;;;28.60;17.85;100619.16;5589078;31;34728;-71
2023/03/19 12:01:43;;;;;;;;;;;;;;;30.26;16.80;100613.44;5576033;31;34558;-71
2023/03/19 12:04:52;;;;;;;;;;;;;;;28.43;18.04;100601.22;5562551;31;33883;-71
2023/03/19 12:07:59;;;;;;;;;;;;;;;26.77;19.65;100594.81;5589094;31;35126;-70
2023/03/19 12:11:08;;;;;;;;;;;;;;;22.16;23.06;100598.53;5589249;31;34973;-72
2023/03/19 12:14:15;;;;;;;;;;;;;;;25.93;20.45;100577.91;5538537;31;1173356;-70
2023/03/19 12:17:26;;;;;;;;;;;;;;;23.02;22.12;100585.87;5575735;31;35058;-72
2023/03/19 12:20:51;;;;;;;;;;;;;;;26.75;19.62;100580.69;5589020;31;34572;-70
2023/03/19 12:24:03;;;;;;;;;;;;;;;26.43;19.22;100569.19;5575832;31;34692;-70
2023/03/19 12:27:12;;;;;;;;;;;;;;;27.08;18.70;100564.94;5575645;31;34456;-70
2023/03/19 12:30:38;;;;;;;;;;;;;;;26.26;18.77;100561.22;5588817;31;35108;-72
2023/03/19 12:33:48;;;;;;;;;;;;;;;26.58;18.54;100557.50;5574356;31;33342;-69
2023/03/19 12:37:11;;;;;;;;;;;;;;;24.99;20.44;100556.03;5574325;31;33233;-71
2023/03/19 12:40:27;;;;;;;;;;;;;;;27.00;19.15;100552.69;5574873;31;35267;-70
2023/03/19 12:43:33;;;;;;;;;;;;;;;27.12;18.46;100549.69;5574986;31;34386;-72
2023/03/19 12:46:47;;;;;;;;;;;;;;;31.47;15.49;100540.34;5574577;31;34321;-71
2023/03/19 12:50:03;;;;;;;;;;;;;;;30.71;16.38;100533.41;5575125;31;35060;-70
2023/03/19 12:53:16;;;;;;;;;;;;;;;30.71;15.70;100535.31;5574846;31;34410;-70
2023/03/19 12:56:33;;;;;;;;;;;;;;;31.16;15.83;100528.31;5574679;31;34844;-71
2023/03/19 12:59:45;;;;;;;;;;;;;;;28.40;17.26;100519.91;5574882;31;34569;-71
2023/03/19 13:03:00;;;;;;;;;;;;;;;27.34;17.84;100517.53;5574755;31;35036;-70
2023/03/19 13:06:10;;;;;;;;;;;;;;;24.51;20.07;100505.34;5575086;31;35141;-70
2023/03/19 13:09:23;;;;;;;;;;;;;;;25.47;21.10;100501.53;5588079;31;34637;-70
2023/03/19 13:12:31;;;;;;;;;;;;;;;28.82;17.22;100500.25;5588335;31;34387;-72
2023/03/19 13:15:42;;;;;;;;;;;;;;;25.79;19.22;100503.38;5587908;31;34415;-70
2023/03/19 13:19:08;;;;;;;;;;;;;;;29.96;16.56;100491.50;5588356;31;34443;-70
2023/03/19 13:22:18;;;;;;;;;;;;;;;26.16;19.32;100486.91;5574483;31;34740;-70
2023/03/19 13:25:30;;;;;;;;;;;;;;;27.85;17.86;100487.44;5587881;31;34564;-71
2023/03/19 13:28:38;;;;;;;;;;;;;;;25.18;19.79;100478.53;5587829;31;35120;-70
2023/03/19 13:31:45;;;;;;;;;;;;;;;23.10;23.03;100474.50;5587814;31;34547;-71
2023/03/19 13:35:08;;;;;;;;;;;;;;;24.91;20.20;100467.75;5561983;31;34555;-70
2023/03/19 13:38:16;;;;;;;;;;;;;;;23.55;21.32;100469.78;5574088;31;35110;-70
2023/03/19 13:41:33;;;;;;;;;;;;;;;19.77;25.76;100455.19;5573851;31;34593;-70
2023/03/19 13:44:41;;;;;;;;;;;;;;;18.79;27.07;100455.13;5573830;31;35201;-69
2023/03/19 13:47:48;;;;;;;;;;;;;;;18.90;26.87;100448.22;5590101;31;34661;-69
2023/03/19 13:50:58;;;;;;;;;;;;;;;19.96;26.14;100437.97;5590264;31;35009;-69
2023/03/19 13:54:21;;;;;;;;;;;;;;;20.89;25.29;100434.72;5590344;31;34485;-69
2023/03/19 13:57:34;;;;;;;;;;;;;;;18.99;26.88;100438.81;5590255;31;34742;-70
2023/03/19 14:00:41;;;;;;;;;;;;;;;19.70;26.48;100431.06;5590039;31;34451;-70
2023/03/19 14:03:53;;;;;;;;;;;;;;;18.50;27.50;100431.53;5576675;31;35107;-69
2023/03/19 14:07:16;;;;;;;;;;;;;;;17.60;29.08;100428.13;5576680;31;34474;-69
2023/03/19 14:10:24;;;;;;;;;;;;;;;17.37;29.47;100427.78;5589941;31;34589;-69
2023/03/19 14:13:31;;;;;;;;;;;;;;;17.04;29.86;100421.66;5590159;31;34961;-69
2023/03/19 14:16:45;;;;;;;;;;;;;;;17.85;28.97;100420.19;5576639;31;35237;-68
2023/03/19 14:19:53;;;;;;;;;;;;;;;18.53;28.56;100429.31;5576910;31;34506;-69
2023/03/19 14:23:07;;;;;;;;;;;;;;;18.87;27.74;100429.84;5590123;31;34796;-69
2023/03/19 14:26:16;;;;;;;;;;;;;;;20.24;26.45;100430.09;5590311;31;35332;-71
2023/03/19 14:29:25;;;;;;;;;;;;;;;20.87;25.27;100426.84;5590141;31;34422;-70
2023/03/19 14:32:39;;;;;;;;;;;;;;;19.45;27.13;100425.78;5589883;31;35060;-71
2023/03/19 14:35:48;;;;;;;;;;;;;;;17.82;28.83;100423.28;5589333;31;35054;-69
2023/03/19 14:38:55;;;;;;;;;;;;;;;17.78;29.67;100414.03;5589583;31;35197;-70
2023/03/19 14:42:19;;;;;;;;;;;;;;;18.46;28.86;100415.06;5589229;31;34487;-69
2023/03/19 14:45:24;;;;;;;;;;;;;;;17.76;29.47;100411.56;5589637;31;34519;-69
2023/03/19 14:48:43;;;;;;;;;;;;;;;17.16;30.32;100407.41;5590011;31;34939;-70
2023/03/19 14:51:49;;;;;;;;;;;;;;;17.11;30.42;100412.56;5589665;31;35243;-69
2023/03/19 14:54:59;;;;;;;;;;;;;;;16.39;31.17;100415.25;5589793;31;34952;-69
2023/03/19 14:58:08;;;;;;;;;;;;;;;16.54;31.50;100410.53;5588892;31;34684;-69
2023/03/19 15:01:18;;;;;;;;;;;;;;;16.98;31.48;100417.97;5576408;31;35042;-68
2023/03/19 15:04:27;;;;;;;;;;;;;;;17.09;31.53;100414.62;5576519;31;34552;-69
2023/03/19 15:07:43;;;;;;;;;;;;;;;17.26;30.67;100409.66;5589756;31;34985;-68
2023/03/19 15:10:50;;;;;;;;;;;;;;;16.83;31.17;100412.00;5576011;31;35097;-69
2023/03/19 15:13:59;;;;;;;;;;;;;;;16.72;30.78;100413.44;5589310;31;34483;-68
2023/03/19 15:17:14;;;;;;;;;;;;;;;16.09;31.67;100414.78;5589332;31;34476;-68
2023/03/19 15:20:22;;;;;;;;;;;;;;;16.13;31.51;100402.66;5576103;31;35106;-69
2023/03/19 15:23:32;;;;;;;;;;;;;;;16.02;31.89;100413.97;5576026;31;34840;-69
2023/03/19 15:26:40;;;;;;;;;;;;;;;15.82;31.90;100413.91;5575738;31;35283;-69
2023/03/19 15:29:46;;;;;;;;;;;;;;;15.43;32.42;100419.06;5589340;31;34946;-68
2023/03/19 15:32:56;;;;;;;;;;;;;;;15.49;32.77;100421.75;5589072;31;34554;-69
2023/03/19 15:36:28;;;;;;;;;;;;;;;15.51;33.11;100416.25;5578627;31;35320;-68
2023/03/19 15:39:38;;;;;;;;;;;;;;;15.50;33.03;100419.91;5589308;31;34647;-69
2023/03/19 15:42:52;;;;;;;;;;;;;;;15.53;32.97;100423.06;5589453;31;34451;-70
2023/03/19 15:46:00;;;;;;;;;;;;;;;15.44;33.14;100421.50;5589360;31;35116;-69
2023/03/19 15:49:14;;;;;;;;;;;;;;;15.30;33.58;100421.66;5575971;31;34581;-71
2023/03/19 15:52:23;;;;;;;;;;;;;;;15.24;34.05;100425.94;5589536;31;34650;-68
2023/03/19 15:55:29;;;;;;;;;;;;;;;15.13;34.62;100421.97;5589006;31;34416;-69
2023/03/19 15:58:38;;;;;;;;;;;;;;;15.02;35.09;100429.69;5588500;31;34644;-69
2023/03/19 16:01:44;;;;;;;;;;;;;;;15.00;35.49;100432.59;5589027;31;34933;-69
2023/03/19 16:04:51;;;;;;;;;;;;;;;14.88;34.61;100433.28;5575148;31;34708;-68
2023/03/19 16:08:21;;;;;;;;;;;;;;;14.77;34.74;100427.47;5588975;31;34900;-69
2023/03/19 16:11:35;;;;;;;;;;;;;;;14.61;34.88;100433.09;5589487;31;35030;-69
2023/03/19 16:14:42;;;;;;;;;;;;;;;14.55;35.07;100436.53;5588910;31;34495;-69
2023/03/19 16:17:49;;;;;;;;;;;;;;;14.47;35.13;100433.19;5588499;31;33927;-68
2023/03/19 16:21:01;;;;;;;;;;;;;;;14.33;35.82;100445.50;5588198;31;34896;-69